sensor_id;sensor_type;location;lat;lon;timestamp;temperature;humidity
2477;DHT22;1249;51.270;6.756;2023-04-25T00:01:27;12.60;99.90
2477;DHT22;1249;51.270;6.756;2023-04-25T00:03:52;12.60;99.90
2477;DHT22;1249;51.270;6.756;2023-04-25T00:06:18;12.60;99.90
2477;DHT22;1249;51.270;6.756;2023-04-25T00:08:44;12.60;99.90
2477;DHT22;1249;51.270;6.756;2023-04-25T00:11:09;12.60;99.90
2477;DHT22;1249;51.270;6.756;2023-04-25T00:13:35;12.60;99.90
2477;DHT22;1249;51.270;6.756;2023-04-25T00:16:01;12.60;99.90
2477;DHT22;1249;51.270;6.756;2023-04-25T00:18:28;12.70;99.90
2477;DHT22;1249;51.270;6.756;2023-04-25T00:20:58;12.70;99.90
2477;DHT22;1249;51.270;6.756;2023-04-25T00:23:24;12.80;99.90
2477;DHT22;1249;51.270;6.756;2023-04-25T00:25:50;12.70;99.90
2477;DHT22;1249;51.270;6.756;2023-04-25T00:28:16;12.70;99.90
2477;DHT22;1249;51.270;6.756;2023-04-25T00:30:42;12.70;99.90
2477;DHT22;1249;51.270;6.756;2023-04-25T00:33:08;12.80;99.90
2477;DHT22;1249;51.270;6.756;2023-04-25T00:35:35;12.70;99.90
2477;DHT22;1249;51.270;6.756;2023-04-25T00:38:01;12.80;99.90
2477;DHT22;1249;51.270;6.756;2023-04-25T00:40:27;12.80;99.90
2477;DHT22;1249;51.270;6.756;2023-04-25T00:42:53;12.70;99.90
2477;DHT22;1249;51.270;6.756;2023-04-25T00:45:19;12.70;99.90
2477;DHT22;1249;51.270;6.756;2023-04-25T00:47:45;12.70;99.90
2477;DHT22;1249;51.270;6.756;2023-04-25T00:50:12;12.70;99.90
2477;DHT22;1249;51.270;6.756;2023-04-25T00:52:43;12.70;99.90
2477;DHT22;1249;51.270;6.756;2023-04-25T00:55:10;12.70;99.90
2477;DHT22;1249;51.270;6.756;2023-04-25T00:57:36;12.70;99.90
2477;DHT22;1249;51.270;6.756;2023-04-25T01:00:04;12.70;99.90
2477;DHT22;1249;51.270;6.756;2023-04-25T01:02:32;12.70;99.90
2477;DHT22;1249;51.270;6.756;2023-04-25T01:15:08;12.70;99.90
2477;DHT22;1249;51.270;6.756;2023-04-25T01:17:34;12.60;99.90
2477;DHT22;1249;51.270;6.756;2023-04-25T01:20:03;12.60;99.90
2477;DHT22;1249;51.270;6.756;2023-04-25T01:22:29;12.60;99.90
2477;DHT22;1249;51.270;6.756;2023-04-25T01:24:55;12.60;99.90
2477;DHT22;1249;51.270;6.756;2023-04-25T01:27:21;12.60;99.90
2477;DHT22;1249;51.270;6.756;2023-04-25T01:29:48;12.60;99.90
2477;DHT22;1249;51.270;6.756;2023-04-25T01:32:14;12.60;99.90
2477;DHT22;1249;51.270;6.756;2023-04-25T01:34:40;12.60;99.90
2477;DHT22;1249;51.270;6.756;2023-04-25T01:37:06;12.60;99.90
2477;DHT22;1249;51.270;6.756;2023-04-25T01:39:31;12.60;99.90
2477;DHT22;1249;51.270;6.756;2023-04-25T01:41:59;12.60;99.90
2477;DHT22;1249;51.270;6.756;2023-04-25T01:44:25;12.60;99.90
2477;DHT22;1249;51.270;6.756;2023-04-25T01:46:51;12.60;99.90
2477;DHT22;1249;51.270;6.756;2023-04-25T01:49:16;12.50;99.90
2477;DHT22;1249;51.270;6.756;2023-04-25T01:51:42;12.50;99.90
2477;DHT22;1249;51.270;6.756;2023-04-25T01:54:08;12.50;99.90
2477;DHT22;1249;51.270;6.756;2023-04-25T01:56:37;12.50;99.90
2477;DHT22;1249;51.270;6.756;2023-04-25T01:59:04;12.60;99.90
2477;DHT22;1249;51.270;6.756;2023-04-25T02:01:29;12.50;99.90
2477;DHT22;1249;51.270;6.756;2023-04-25T02:03:55;12.50;99.90
2477;DHT22;1249;51.270;6.756;2023-04-25T02:06:21;12.40;99.90
2477;DHT22;1249;51.270;6.756;2023-04-25T02:08:46;12.40;99.90
2477;DHT22;1249;51.270;6.756;2023-04-25T02:11:12;12.40;99.90
2477;DHT22;1249;51.270;6.756;2023-04-25T02:13:37;12.40;99.90
2477;DHT22;1249;51.270;6.756;2023-04-25T02:16:03;12.40;99.90
2477;DHT22;1249;51.270;6.756;2023-04-25T02:18:29;12.40;99.90
2477;DHT22;1249;51.270;6.756;2023-04-25T02:20:55;12.40;99.90
2477;DHT22;1249;51.270;6.756;2023-04-25T02:23:20;12.50;99.90
2477;DHT22;1249;51.270;6.756;2023-04-25T02:25:46;12.40;99.90
2477;DHT22;1249;51.270;6.756;2023-04-25T02:28:12;12.40;99.90
2477;DHT22;1249;51.270;6.756;2023-04-25T02:30:37;12.40;99.90
2477;DHT22;1249;51.270;6.756;2023-04-25T02:33:03;12.40;99.90
2477;DHT22;1249;51.270;6.756;2023-04-25T02:35:28;12.40;99.90
2477;DHT22;1249;51.270;6.756;2023-04-25T02:37:54;12.40;99.90
2477;DHT22;1249;51.270;6.756;2023-04-25T02:40:20;12.40;99.90
2477;DHT22;1249;51.270;6.756;2023-04-25T02:42:45;12.30;99.90
2477;DHT22;1249;51.270;6.756;2023-04-25T02:45:11;12.30;99.90
2477;DHT22;1249;51.270;6.756;2023-04-25T02:47:36;12.30;99.90
2477;DHT22;1249;51.270;6.756;2023-04-25T02:50:02;12.30;99.90
2477;DHT22;1249;51.270;6.756;2023-04-25T02:52:28;12.20;99.90
2477;DHT22;1249;51.270;6.756;2023-04-25T02:54:54;12.20;99.90
2477;DHT22;1249;51.270;6.756;2023-04-25T02:57:19;12.20;99.90
2477;DHT22;1249;51.270;6.756;2023-04-25T02:59:45;12.20;99.90
2477;DHT22;1249;51.270;6.756;2023-04-25T03:02:10;12.30;99.90
2477;DHT22;1249;51.270;6.756;2023-04-25T03:04:36;12.20;99.90
2477;DHT22;1249;51.270;6.756;2023-04-25T03:07:02;12.20;99.90
2477;DHT22;1249;51.270;6.756;2023-04-25T03:09:27;12.30;99.90
2477;DHT22;1249;51.270;6.756;2023-04-25T03:11:53;12.10;99.90
2477;DHT22;1249;51.270;6.756;2023-04-25T03:14:19;12.10;99.90
2477;DHT22;1249;51.270;6.756;2023-04-25T03:16:44;12.20;99.90
2477;DHT22;1249;51.270;6.756;2023-04-25T03:19:10;12.10;99.90
2477;DHT22;1249;51.270;6.756;2023-04-25T03:21:36;12.10;99.90
2477;DHT22;1249;51.270;6.756;2023-04-25T03:24:04;12.10;99.90
2477;DHT22;1249;51.270;6.756;2023-04-25T03:26:29;12.00;99.90
2477;DHT22;1249;51.270;6.756;2023-04-25T03:28:55;12.10;99.90
2477;DHT22;1249;51.270;6.756;2023-04-25T03:31:21;12.00;99.90
2477;DHT22;1249;51.270;6.756;2023-04-25T03:33:47;12.10;99.90
2477;DHT22;1249;51.270;6.756;2023-04-25T03:36:13;12.00;99.90
2477;DHT22;1249;51.270;6.756;2023-04-25T03:38:38;12.00;99.90
2477;DHT22;1249;51.270;6.756;2023-04-25T03:41:04;12.00;99.90
2477;DHT22;1249;51.270;6.756;2023-04-25T03:43:29;11.90;99.90
2477;DHT22;1249;51.270;6.756;2023-04-25T03:45:55;12.00;99.90
2477;DHT22;1249;51.270;6.756;2023-04-25T03:48:21;11.90;99.90
2477;DHT22;1249;51.270;6.756;2023-04-25T03:50:47;11.90;99.90
2477;DHT22;1249;51.270;6.756;2023-04-25T03:53:13;11.90;99.90
2477;DHT22;1249;51.270;6.756;2023-04-25T03:55:38;11.80;99.90
2477;DHT22;1249;51.270;6.756;2023-04-25T03:58:04;11.90;99.90
2477;DHT22;1249;51.270;6.756;2023-04-25T04:00:30;11.80;99.90
2477;DHT22;1249;51.270;6.756;2023-04-25T04:02:56;11.80;99.90
2477;DHT22;1249;51.270;6.756;2023-04-25T04:05:22;11.80;99.90
2477;DHT22;1249;51.270;6.756;2023-04-25T04:07:48;11.80;99.90
2477;DHT22;1249;51.270;6.756;2023-04-25T04:10:14;11.90;99.90
2477;DHT22;1249;51.270;6.756;2023-04-25T04:12:39;11.80;99.90
2477;DHT22;1249;51.270;6.756;2023-04-25T04:15:06;11.80;99.90
2477;DHT22;1249;51.270;6.756;2023-04-25T04:17:33;11.70;99.90
2477;DHT22;1249;51.270;6.756;2023-04-25T04:19:59;11.70;99.90
2477;DHT22;1249;51.270;6.756;2023-04-25T04:22:25;11.80;99.90
2477;DHT22;1249;51.270;6.756;2023-04-25T04:24:51;11.70;99.90
2477;DHT22;1249;51.270;6.756;2023-04-25T04:27:21;11.70;99.90
2477;DHT22;1249;51.270;6.756;2023-04-25T04:29:46;11.70;99.90
2477;DHT22;1249;51.270;6.756;2023-04-25T04:32:13;11.70;99.90
2477;DHT22;1249;51.270;6.756;2023-04-25T04:34:39;11.80;99.90
2477;DHT22;1249;51.270;6.756;2023-04-25T04:37:05;11.80;99.90
2477;DHT22;1249;51.270;6.756;2023-04-25T04:39:35;11.70;99.90
2477;DHT22;1249;51.270;6.756;2023-04-25T04:42:00;11.70;99.90
2477;DHT22;1249;51.270;6.756;2023-04-25T04:44:30;11.70;99.90
2477;DHT22;1249;51.270;6.756;2023-04-25T04:46:58;11.70;99.90
2477;DHT22;1249;51.270;6.756;2023-04-25T04:49:23;11.70;99.90
2477;DHT22;1249;51.270;6.756;2023-04-25T04:51:49;11.70;99.90
2477;DHT22;1249;51.270;6.756;2023-04-25T04:54:15;11.70;99.90
2477;DHT22;1249;51.270;6.756;2023-04-25T04:56:40;11.70;99.90
2477;DHT22;1249;51.270;6.756;2023-04-25T04:59:07;11.70;99.90
2477;DHT22;1249;51.270;6.756;2023-04-25T05:01:32;11.70;99.90
2477;DHT22;1249;51.270;6.756;2023-04-25T05:04:00;11.70;99.90
2477;DHT22;1249;51.270;6.756;2023-04-25T05:06:27;11.70;99.90
2477;DHT22;1249;51.270;6.756;2023-04-25T05:08:54;11.80;99.90
2477;DHT22;1249;51.270;6.756;2023-04-25T05:11:19;12.30;99.90
2477;DHT22;1249;51.270;6.756;2023-04-25T05:13:46;12.50;99.90
2477;DHT22;1249;51.270;6.756;2023-04-25T05:16:13;12.70;99.90
2477;DHT22;1249;51.270;6.756;2023-04-25T05:18:39;13.00;99.90
2477;DHT22;1249;51.270;6.756;2023-04-25T05:21:05;13.30;99.90
2477;DHT22;1249;51.270;6.756;2023-04-25T05:23:32;13.60;99.90
2477;DHT22;1249;51.270;6.756;2023-04-25T05:25:57;13.80;99.90
2477;DHT22;1249;51.270;6.756;2023-04-25T05:28:23;14.10;99.90
2477;DHT22;1249;51.270;6.756;2023-04-25T05:30:48;14.20;99.90
2477;DHT22;1249;51.270;6.756;2023-04-25T05:33:14;14.40;99.90
2477;DHT22;1249;51.270;6.756;2023-04-25T05:35:40;14.50;99.90
2477;DHT22;1249;51.270;6.756;2023-04-25T05:38:06;14.60;99.90
2477;DHT22;1249;51.270;6.756;2023-04-25T05:40:32;14.70;99.90
2477;DHT22;1249;51.270;6.756;2023-04-25T05:42:57;14.70;99.90
2477;DHT22;1249;51.270;6.756;2023-04-25T05:45:23;14.90;99.90
2477;DHT22;1249;51.270;6.756;2023-04-25T05:50:16;15.10;99.90
2477;DHT22;1249;51.270;6.756;2023-04-25T05:52:42;15.20;99.90
2477;DHT22;1249;51.270;6.756;2023-04-25T05:55:08;15.20;99.90
2477;DHT22;1249;51.270;6.756;2023-04-25T05:57:33;15.20;99.90
2477;DHT22;1249;51.270;6.756;2023-04-25T05:59:59;15.30;99.90
2477;DHT22;1249;51.270;6.756;2023-04-25T06:02:25;15.40;99.90
2477;DHT22;1249;51.270;6.756;2023-04-25T06:04:51;15.40;99.90
2477;DHT22;1249;51.270;6.756;2023-04-25T06:07:18;15.50;99.90
2477;DHT22;1249;51.270;6.756;2023-04-25T06:09:44;15.50;99.90
2477;DHT22;1249;51.270;6.756;2023-04-25T06:12:10;15.60;99.90
2477;DHT22;1249;51.270;6.756;2023-04-25T06:14:35;15.60;99.90
2477;DHT22;1249;51.270;6.756;2023-04-25T06:17:02;15.60;99.90
2477;DHT22;1249;51.270;6.756;2023-04-25T06:19:32;15.70;99.90
2477;DHT22;1249;51.270;6.756;2023-04-25T06:21:58;15.80;99.90
2477;DHT22;1249;51.270;6.756;2023-04-25T06:24:24;15.90;99.90
2477;DHT22;1249;51.270;6.756;2023-04-25T06:26:50;15.90;99.90
2477;DHT22;1249;51.270;6.756;2023-04-25T06:29:15;16.10;99.90
2477;DHT22;1249;51.270;6.756;2023-04-25T06:31:41;16.40;99.90
2477;DHT22;1249;51.270;6.756;2023-04-25T06:34:06;16.40;99.90
2477;DHT22;1249;51.270;6.756;2023-04-25T06:36:32;16.50;99.90
2477;DHT22;1249;51.270;6.756;2023-04-25T06:38:57;16.60;99.90
2477;DHT22;1249;51.270;6.756;2023-04-25T06:41:23;16.70;99.90
2477;DHT22;1249;51.270;6.756;2023-04-25T06:43:48;16.70;99.90
2477;DHT22;1249;51.270;6.756;2023-04-25T06:46:14;16.80;99.90
2477;DHT22;1249;51.270;6.756;2023-04-25T06:48:39;16.80;99.90
2477;DHT22;1249;51.270;6.756;2023-04-25T06:51:05;16.80;99.90
2477;DHT22;1249;51.270;6.756;2023-04-25T06:53:31;16.90;99.90
2477;DHT22;1249;51.270;6.756;2023-04-25T06:55:56;16.80;99.90
2477;DHT22;1249;51.270;6.756;2023-04-25T06:58:22;16.90;99.90
2477;DHT22;1249;51.270;6.756;2023-04-25T07:00:47;17.00;99.90
2477;DHT22;1249;51.270;6.756;2023-04-25T07:03:13;17.10;99.90
2477;DHT22;1249;51.270;6.756;2023-04-25T07:05:39;17.10;99.90
2477;DHT22;1249;51.270;6.756;2023-04-25T07:08:05;17.10;99.90
2477;DHT22;1249;51.270;6.756;2023-04-25T07:10:30;17.30;99.90
2477;DHT22;1249;51.270;6.756;2023-04-25T07:12:56;17.30;99.90
2477;DHT22;1249;51.270;6.756;2023-04-25T07:15:21;17.40;99.90
2477;DHT22;1249;51.270;6.756;2023-04-25T07:17:47;17.40;99.90
2477;DHT22;1249;51.270;6.756;2023-04-25T07:20:13;17.30;99.90
2477;DHT22;1249;51.270;6.756;2023-04-25T07:22:38;17.30;99.90
2477;DHT22;1249;51.270;6.756;2023-04-25T07:25:04;17.20;99.90
2477;DHT22;1249;51.270;6.756;2023-04-25T07:27:30;17.10;99.90
2477;DHT22;1249;51.270;6.756;2023-04-25T07:29:56;17.00;99.90
2477;DHT22;1249;51.270;6.756;2023-04-25T07:32:22;16.90;99.90
2477;DHT22;1249;51.270;6.756;2023-04-25T07:34:48;17.00;99.90
2477;DHT22;1249;51.270;6.756;2023-04-25T07:37:14;17.10;99.90
2477;DHT22;1249;51.270;6.756;2023-04-25T07:39:40;17.40;99.90
2477;DHT22;1249;51.270;6.756;2023-04-25T07:42:06;17.40;99.90
2477;DHT22;1249;51.270;6.756;2023-04-25T07:44:34;17.50;99.90
2477;DHT22;1249;51.270;6.756;2023-04-25T07:47:07;17.60;99.90
2477;DHT22;1249;51.270;6.756;2023-04-25T07:49:33;17.80;99.90
2477;DHT22;1249;51.270;6.756;2023-04-25T07:52:00;18.00;99.90
2477;DHT22;1249;51.270;6.756;2023-04-25T07:54:26;18.10;99.90
2477;DHT22;1249;51.270;6.756;2023-04-25T07:56:51;18.30;99.90
2477;DHT22;1249;51.270;6.756;2023-04-25T07:59:17;18.40;99.90
2477;DHT22;1249;51.270;6.756;2023-04-25T08:01:42;18.40;99.90
2477;DHT22;1249;51.270;6.756;2023-04-25T08:04:08;18.50;99.90
2477;DHT22;1249;51.270;6.756;2023-04-25T08:06:34;18.30;99.90
2477;DHT22;1249;51.270;6.756;2023-04-25T08:09:01;18.10;99.90
2477;DHT22;1249;51.270;6.756;2023-04-25T08:11:26;17.90;99.90
2477;DHT22;1249;51.270;6.756;2023-04-25T08:13:52;17.70;99.90
2477;DHT22;1249;51.270;6.756;2023-04-25T08:16:17;17.50;99.90
2477;DHT22;1249;51.270;6.756;2023-04-25T08:18:43;17.40;99.90
2477;DHT22;1249;51.270;6.756;2023-04-25T08:21:09;17.60;99.90
2477;DHT22;1249;51.270;6.756;2023-04-25T08:23:36;17.90;99.90
2477;DHT22;1249;51.270;6.756;2023-04-25T08:26:02;18.20;99.90
2477;DHT22;1249;51.270;6.756;2023-04-25T08:28:28;18.30;99.90
2477;DHT22;1249;51.270;6.756;2023-04-25T08:30:54;18.50;99.90
2477;DHT22;1249;51.270;6.756;2023-04-25T08:33:19;18.60;99.90
2477;DHT22;1249;51.270;6.756;2023-04-25T08:35:45;18.60;99.90
2477;DHT22;1249;51.270;6.756;2023-04-25T08:38:11;18.50;99.90
2477;DHT22;1249;51.270;6.756;2023-04-25T08:40:38;18.60;99.90
2477;DHT22;1249;51.270;6.756;2023-04-25T08:43:06;18.80;99.90
2477;DHT22;1249;51.270;6.756;2023-04-25T08:45:38;18.90;99.90
2477;DHT22;1249;51.270;6.756;2023-04-25T08:48:11;19.10;99.90
2477;DHT22;1249;51.270;6.756;2023-04-25T08:50:40;19.30;99.90
2477;DHT22;1249;51.270;6.756;2023-04-25T08:53:08;19.30;99.90
2477;DHT22;1249;51.270;6.756;2023-04-25T08:55:37;19.40;99.90
2477;DHT22;1249;51.270;6.756;2023-04-25T08:58:05;19.50;99.90
2477;DHT22;1249;51.270;6.756;2023-04-25T09:00:31;19.50;99.90
2477;DHT22;1249;51.270;6.756;2023-04-25T09:02:58;19.80;99.90
2477;DHT22;1249;51.270;6.756;2023-04-25T09:05:24;19.70;99.90
2477;DHT22;1249;51.270;6.756;2023-04-25T09:07:49;19.60;99.90
2477;DHT22;1249;51.270;6.756;2023-04-25T09:10:15;19.60;99.90
2477;DHT22;1249;51.270;6.756;2023-04-25T09:12:41;19.60;99.90
2477;DHT22;1249;51.270;6.756;2023-04-25T09:15:09;19.40;99.90
2477;DHT22;1249;51.270;6.756;2023-04-25T09:17:35;19.20;99.90
2477;DHT22;1249;51.270;6.756;2023-04-25T09:20:14;19.10;99.90
2477;DHT22;1249;51.270;6.756;2023-04-25T09:22:40;19.40;99.90
2477;DHT22;1249;51.270;6.756;2023-04-25T09:25:11;19.70;99.90
2477;DHT22;1249;51.270;6.756;2023-04-25T09:27:52;20.00;99.90
2477;DHT22;1249;51.270;6.756;2023-04-25T09:30:18;20.40;99.90
2477;DHT22;1249;51.270;6.756;2023-04-25T09:32:44;20.60;99.90
2477;DHT22;1249;51.270;6.756;2023-04-25T09:35:11;20.80;99.90
2477;DHT22;1249;51.270;6.756;2023-04-25T09:37:48;20.40;99.90
2477;DHT22;1249;51.270;6.756;2023-04-25T09:40:13;20.10;99.90
2477;DHT22;1249;51.270;6.756;2023-04-25T09:42:41;20.20;99.90
2477;DHT22;1249;51.270;6.756;2023-04-25T09:45:07;20.50;99.60
2477;DHT22;1249;51.270;6.756;2023-04-25T09:47:37;20.80;99.10
2477;DHT22;1249;51.270;6.756;2023-04-25T09:50:03;20.80;98.70
2477;DHT22;1249;51.270;6.756;2023-04-25T09:52:30;20.60;99.10
2477;DHT22;1249;51.270;6.756;2023-04-25T09:54:56;20.50;98.80
2477;DHT22;1249;51.270;6.756;2023-04-25T09:57:23;20.30;98.70
2477;DHT22;1249;51.270;6.756;2023-04-25T09:59:51;20.20;98.70
2477;DHT22;1249;51.270;6.756;2023-04-25T10:02:20;20.10;98.60
2477;DHT22;1249;51.270;6.756;2023-04-25T10:04:53;20.00;98.70
2477;DHT22;1249;51.270;6.756;2023-04-25T10:07:24;19.90;98.60
2477;DHT22;1249;51.270;6.756;2023-04-25T10:09:58;19.70;98.40
2477;DHT22;1249;51.270;6.756;2023-04-25T10:12:26;19.50;98.40
2477;DHT22;1249;51.270;6.756;2023-04-25T10:14:52;19.40;99.00
2477;DHT22;1249;51.270;6.756;2023-04-25T10:17:20;19.30;99.40
2477;DHT22;1249;51.270;6.756;2023-04-25T10:19:49;19.20;99.90
2477;DHT22;1249;51.270;6.756;2023-04-25T10:22:35;19.10;99.90
2477;DHT22;1249;51.270;6.756;2023-04-25T10:25:02;19.00;99.90
2477;DHT22;1249;51.270;6.756;2023-04-25T10:27:29;19.00;99.90
2477;DHT22;1249;51.270;6.756;2023-04-25T10:30:15;18.90;99.90
2477;DHT22;1249;51.270;6.756;2023-04-25T10:32:43;18.80;99.90
2477;DHT22;1249;51.270;6.756;2023-04-25T10:35:13;18.80;98.50
2477;DHT22;1249;51.270;6.756;2023-04-25T10:38:03;18.80;97.90
2477;DHT22;1249;51.270;6.756;2023-04-25T10:40:30;18.90;97.10
2477;DHT22;1249;51.270;6.756;2023-04-25T10:42:55;19.00;96.90
2477;DHT22;1249;51.270;6.756;2023-04-25T10:45:51;19.10;96.80
2477;DHT22;1249;51.270;6.756;2023-04-25T10:48:30;19.30;95.90
2477;DHT22;1249;51.270;6.756;2023-04-25T10:51:09;19.40;93.40
2477;DHT22;1249;51.270;6.756;2023-04-25T10:53:35;19.50;91.00
2477;DHT22;1249;51.270;6.756;2023-04-25T10:56:00;19.50;90.50
2477;DHT22;1249;51.270;6.756;2023-04-25T10:58:34;19.50;90.20
2477;DHT22;1249;51.270;6.756;2023-04-25T11:01:01;19.50;90.40
2477;DHT22;1249;51.270;6.756;2023-04-25T11:03:26;19.50;90.20
2477;DHT22;1249;51.270;6.756;2023-04-25T11:05:52;19.50;90.40
2477;DHT22;1249;51.270;6.756;2023-04-25T11:08:31;19.50;90.50
2477;DHT22;1249;51.270;6.756;2023-04-25T11:11:02;19.70;90.80
2477;DHT22;1249;51.270;6.756;2023-04-25T11:13:30;19.90;90.70
2477;DHT22;1249;51.270;6.756;2023-04-25T11:15:56;19.90;90.60
2477;DHT22;1249;51.270;6.756;2023-04-25T11:18:21;19.90;91.00
2477;DHT22;1249;51.270;6.756;2023-04-25T11:20:51;20.40;91.30
2477;DHT22;1249;51.270;6.756;2023-04-25T11:23:16;20.60;91.20
2477;DHT22;1249;51.270;6.756;2023-04-25T11:25:42;20.90;91.50
2477;DHT22;1249;51.270;6.756;2023-04-25T11:28:08;21.40;91.00
2477;DHT22;1249;51.270;6.756;2023-04-25T11:30:33;21.90;90.70
2477;DHT22;1249;51.270;6.756;2023-04-25T11:32:59;22.10;90.80
2477;DHT22;1249;51.270;6.756;2023-04-25T11:35:25;22.10;90.30
2477;DHT22;1249;51.270;6.756;2023-04-25T11:37:51;22.60;90.30
2477;DHT22;1249;51.270;6.756;2023-04-25T11:40:16;23.00;90.00
2477;DHT22;1249;51.270;6.756;2023-04-25T11:42:45;23.30;89.20
2477;DHT22;1249;51.270;6.756;2023-04-25T11:45:11;23.70;89.10
2477;DHT22;1249;51.270;6.756;2023-04-25T11:47:37;23.70;88.00
2477;DHT22;1249;51.270;6.756;2023-04-25T11:50:04;23.70;88.20
2477;DHT22;1249;51.270;6.756;2023-04-25T11:52:45;23.60;87.70
2477;DHT22;1249;51.270;6.756;2023-04-25T11:55:20;23.20;88.10
2477;DHT22;1249;51.270;6.756;2023-04-25T11:57:48;23.10;89.10
2477;DHT22;1249;51.270;6.756;2023-04-25T12:00:21;22.70;89.90
2477;DHT22;1249;51.270;6.756;2023-04-25T12:02:50;22.30;90.00
2477;DHT22;1249;51.270;6.756;2023-04-25T12:05:16;21.90;89.90
2477;DHT22;1249;51.270;6.756;2023-04-25T12:07:42;21.50;90.30
2477;DHT22;1249;51.270;6.756;2023-04-25T12:10:10;21.20;90.50
2477;DHT22;1249;51.270;6.756;2023-04-25T12:12:37;21.00;91.60
2477;DHT22;1249;51.270;6.756;2023-04-25T12:15:16;20.70;91.40
2477;DHT22;1249;51.270;6.756;2023-04-25T12:17:48;20.30;91.60
2477;DHT22;1249;51.270;6.756;2023-04-25T12:20:19;20.20;92.40
2477;DHT22;1249;51.270;6.756;2023-04-25T12:22:51;20.00;93.30
2477;DHT22;1249;51.270;6.756;2023-04-25T12:31:02;19.90;95.50
2477;DHT22;1249;51.270;6.756;2023-04-25T12:33:36;20.00;95.50
2477;DHT22;1249;51.270;6.756;2023-04-25T12:36:04;20.50;95.30
2477;DHT22;1249;51.270;6.756;2023-04-25T12:38:36;21.10;95.40
2477;DHT22;1249;51.270;6.756;2023-04-25T12:41:02;21.80;95.00
2477;DHT22;1249;51.270;6.756;2023-04-25T12:43:28;22.40;94.20
2477;DHT22;1249;51.270;6.756;2023-04-25T12:45:55;22.90;92.90
2477;DHT22;1249;51.270;6.756;2023-04-25T12:48:21;23.40;92.10
2477;DHT22;1249;51.270;6.756;2023-04-25T12:50:48;23.90;91.80
2477;DHT22;1249;51.270;6.756;2023-04-25T12:53:21;24.40;91.00
2477;DHT22;1249;51.270;6.756;2023-04-25T12:55:48;24.60;90.50
2477;DHT22;1249;51.270;6.756;2023-04-25T12:58:15;24.50;89.90
2477;DHT22;1249;51.270;6.756;2023-04-25T13:00:40;24.00;89.30
2477;DHT22;1249;51.270;6.756;2023-04-25T13:03:06;23.50;89.20
2477;DHT22;1249;51.270;6.756;2023-04-25T13:05:32;22.90;89.40
2477;DHT22;1249;51.270;6.756;2023-04-25T13:07:57;22.40;90.10
2477;DHT22;1249;51.270;6.756;2023-04-25T13:10:23;22.00;90.40
2477;DHT22;1249;51.270;6.756;2023-04-25T13:12:49;21.60;90.90
2477;DHT22;1249;51.270;6.756;2023-04-25T13:15:14;21.40;91.10
2477;DHT22;1249;51.270;6.756;2023-04-25T13:17:41;21.10;91.50
2477;DHT22;1249;51.270;6.756;2023-04-25T13:20:07;21.00;91.70
2477;DHT22;1249;51.270;6.756;2023-04-25T13:22:35;20.90;91.80
2477;DHT22;1249;51.270;6.756;2023-04-25T13:25:05;20.90;91.90
2477;DHT22;1249;51.270;6.756;2023-04-25T13:27:32;20.90;91.80
2477;DHT22;1249;51.270;6.756;2023-04-25T13:29:59;21.20;91.70
2477;DHT22;1249;51.270;6.756;2023-04-25T13:32:26;21.50;91.60
2477;DHT22;1249;51.270;6.756;2023-04-25T13:34:52;21.70;91.10
2477;DHT22;1249;51.270;6.756;2023-04-25T13:37:18;22.10;90.60
2477;DHT22;1249;51.270;6.756;2023-04-25T13:39:44;22.00;90.50
2477;DHT22;1249;51.270;6.756;2023-04-25T13:42:12;21.80;90.00
2477;DHT22;1249;51.270;6.756;2023-04-25T13:44:38;21.60;90.20
2477;DHT22;1249;51.270;6.756;2023-04-25T13:47:03;21.50;90.70
2477;DHT22;1249;51.270;6.756;2023-04-25T13:49:29;21.50;91.00
2477;DHT22;1249;51.270;6.756;2023-04-25T13:51:54;21.40;90.80
2477;DHT22;1249;51.270;6.756;2023-04-25T13:54:20;21.50;90.60
2477;DHT22;1249;51.270;6.756;2023-04-25T13:56:46;21.90;90.60
2477;DHT22;1249;51.270;6.756;2023-04-25T13:59:11;22.50;90.20
2477;DHT22;1249;51.270;6.756;2023-04-25T14:01:37;22.50;88.80
2477;DHT22;1249;51.270;6.756;2023-04-25T14:04:03;22.50;80.90
2477;DHT22;1249;51.270;6.756;2023-04-25T14:06:29;22.50;74.40
2477;DHT22;1249;51.270;6.756;2023-04-25T14:08:55;22.60;69.50
2477;DHT22;1249;51.270;6.756;2023-04-25T14:11:21;22.40;67.70
2477;DHT22;1249;51.270;6.756;2023-04-25T14:13:47;22.40;66.50
2477;DHT22;1249;51.270;6.756;2023-04-25T14:16:15;22.30;65.40
2477;DHT22;1249;51.270;6.756;2023-04-25T14:18:41;21.90;67.60
2477;DHT22;1249;51.270;6.756;2023-04-25T14:21:06;21.40;63.30
2477;DHT22;1249;51.270;6.756;2023-04-25T14:23:32;21.10;64.20
2477;DHT22;1249;51.270;6.756;2023-04-25T14:25:57;20.30;57.60
2477;DHT22;1249;51.270;6.756;2023-04-25T14:28:23;19.50;59.80
2477;DHT22;1249;51.270;6.756;2023-04-25T14:30:48;19.40;62.80
2477;DHT22;1249;51.270;6.756;2023-04-25T14:33:14;19.20;62.50
2477;DHT22;1249;51.270;6.756;2023-04-25T14:35:40;18.90;63.80
2477;DHT22;1249;51.270;6.756;2023-04-25T14:38:05;18.70;63.90
2477;DHT22;1249;51.270;6.756;2023-04-25T14:40:31;19.40;65.20
2477;DHT22;1249;51.270;6.756;2023-04-25T14:42:56;19.90;63.10
2477;DHT22;1249;51.270;6.756;2023-04-25T14:45:22;20.60;63.00
2477;DHT22;1249;51.270;6.756;2023-04-25T14:47:47;21.10;61.20
2477;DHT22;1249;51.270;6.756;2023-04-25T14:50:13;21.50;59.20
2477;DHT22;1249;51.270;6.756;2023-04-25T14:52:39;21.20;58.50
2477;DHT22;1249;51.270;6.756;2023-04-25T14:55:04;20.90;58.00
2477;DHT22;1249;51.270;6.756;2023-04-25T14:57:33;20.50;59.60
2477;DHT22;1249;51.270;6.756;2023-04-25T14:59:59;20.30;61.40
2477;DHT22;1249;51.270;6.756;2023-04-25T15:02:26;19.80;61.40
2477;DHT22;1249;51.270;6.756;2023-04-25T15:04:52;19.50;62.50
2477;DHT22;1249;51.270;6.756;2023-04-25T15:07:18;19.10;60.20
2477;DHT22;1249;51.270;6.756;2023-04-25T15:09:44;18.60;60.00
2477;DHT22;1249;51.270;6.756;2023-04-25T15:12:10;18.40;59.50
2477;DHT22;1249;51.270;6.756;2023-04-25T15:14:36;18.30;59.70
2477;DHT22;1249;51.270;6.756;2023-04-25T15:17:02;17.90;57.90
2477;DHT22;1249;51.270;6.756;2023-04-25T15:19:27;17.40;57.40
2477;DHT22;1249;51.270;6.756;2023-04-25T15:21:53;17.20;58.90
2477;DHT22;1249;51.270;6.756;2023-04-25T15:24:19;17.30;61.30
2477;DHT22;1249;51.270;6.756;2023-04-25T15:26:45;17.90;62.30
2477;DHT22;1249;51.270;6.756;2023-04-25T15:29:11;18.40;63.60
2477;DHT22;1249;51.270;6.756;2023-04-25T15:31:37;19.00;64.00
2477;DHT22;1249;51.270;6.756;2023-04-25T15:34:03;19.40;62.80
2477;DHT22;1249;51.270;6.756;2023-04-25T15:36:28;19.70;63.70
2477;DHT22;1249;51.270;6.756;2023-04-25T15:38:54;20.10;61.70
2477;DHT22;1249;51.270;6.756;2023-04-25T15:41:19;20.50;60.00
2477;DHT22;1249;51.270;6.756;2023-04-25T15:43:47;21.00;60.70
2477;DHT22;1249;51.270;6.756;2023-04-25T15:46:13;21.30;58.70
2477;DHT22;1249;51.270;6.756;2023-04-25T15:48:38;21.50;59.30
2477;DHT22;1249;51.270;6.756;2023-04-25T15:51:04;21.80;58.00
2477;DHT22;1249;51.270;6.756;2023-04-25T15:53:30;22.00;58.50
2477;DHT22;1249;51.270;6.756;2023-04-25T15:55:55;22.20;57.10
2477;DHT22;1249;51.270;6.756;2023-04-25T15:58:21;21.90;58.20
2477;DHT22;1249;51.270;6.756;2023-04-25T16:00:47;21.50;57.50
2477;DHT22;1249;51.270;6.756;2023-04-25T16:03:14;21.00;58.70
2477;DHT22;1249;51.270;6.756;2023-04-25T16:05:40;20.50;59.20
2477;DHT22;1249;51.270;6.756;2023-04-25T16:08:05;20.00;59.60
2477;DHT22;1249;51.270;6.756;2023-04-25T16:10:31;19.60;59.20
2477;DHT22;1249;51.270;6.756;2023-04-25T16:12:57;19.30;67.60
2477;DHT22;1249;51.270;6.756;2023-04-25T16:15:23;19.10;69.40
2477;DHT22;1249;51.270;6.756;2023-04-25T16:17:49;19.00;70.50